sensor_id;sensor_type;location;lat;lon;timestamp;P1;durP1;ratioP1;P2;durP2;ratioP2
79249;SDS011;68679;51.030;7.584;2023-06-10T00:02:10;13.13;;;9.65;;
79249;SDS011;68679;51.030;7.584;2023-06-10T00:04:35;11.80;;;8.90;;
79249;SDS011;68679;51.030;7.584;2023-06-10T00:07:02;13.80;;;9.80;;
79249;SDS011;68679;51.030;7.584;2023-06-10T00:09:36;16.63;;;9.13;;
79249;SDS011;68679;51.030;7.584;2023-06-10T00:12:04;10.55;;;8.55;;
79249;SDS011;68679;51.030;7.584;2023-06-10T00:14:31;12.07;;;8.25;;
79249;SDS011;68679;51.030;7.584;2023-06-10T00:16:57;11.10;;;9.20;;
79249;SDS011;68679;51.030;7.584;2023-06-10T00:19:22;13.00;;;8.93;;
79249;SDS011;68679;51.030;7.584;2023-06-10T00:21:50;13.32;;;9.93;;
79249;SDS011;68679;51.030;7.584;2023-06-10T00:24:17;14.30;;;9.32;;
79249;SDS011;68679;51.030;7.584;2023-06-10T00:26:42;16.83;;;9.07;;
79249;SDS011;68679;51.030;7.584;2023-06-10T00:29:08;12.47;;;9.40;;
79249;SDS011;68679;51.030;7.584;2023-06-10T00:31:37;13.00;;;9.07;;
79249;SDS011;68679;51.030;7.584;2023-06-10T00:34:02;14.45;;;9.32;;
79249;SDS011;68679;51.030;7.584;2023-06-10T00:36:28;14.90;;;9.38;;
79249;SDS011;68679;51.030;7.584;2023-06-10T00:38:54;12.02;;;9.07;;
79249;SDS011;68679;51.030;7.584;2023-06-10T00:41:20;13.60;;;9.00;;
79249;SDS011;68679;51.030;7.584;2023-06-10T00:43:45;13.53;;;8.87;;
79249;SDS011;68679;51.030;7.584;2023-06-10T00:46:11;12.27;;;8.88;;
79249;SDS011;68679;51.030;7.584;2023-06-10T00:48:39;15.63;;;9.43;;
79249;SDS011;68679;51.030;7.584;2023-06-10T00:51:06;11.45;;;8.75;;
79249;SDS011;68679;51.030;7.584;2023-06-10T00:53:34;15.18;;;9.50;;
79249;SDS011;68679;51.030;7.584;2023-06-10T00:56:04;12.38;;;8.88;;
79249;SDS011;68679;51.030;7.584;2023-06-10T00:58:30;14.05;;;9.73;;
79249;SDS011;68679;51.030;7.584;2023-06-10T01:00:56;12.82;;;8.88;;
79249;SDS011;68679;51.030;7.584;2023-06-10T01:03:22;10.82;;;8.40;;
79249;SDS011;68679;51.030;7.584;2023-06-10T01:05:49;14.23;;;9.20;;
79249;SDS011;68679;51.030;7.584;2023-06-10T01:08:35;11.48;;;8.95;;
79249;SDS011;68679;51.030;7.584;2023-06-10T01:11:08;15.82;;;9.10;;
79249;SDS011;68679;51.030;7.584;2023-06-10T01:13:42;12.95;;;8.43;;
79249;SDS011;68679;51.030;7.584;2023-06-10T01:16:09;12.10;;;9.02;;
79249;SDS011;68679;51.030;7.584;2023-06-10T01:18:35;12.27;;;8.82;;
79249;SDS011;68679;51.030;7.584;2023-06-10T01:21:00;10.80;;;9.20;;
79249;SDS011;68679;51.030;7.584;2023-06-10T01:23:25;12.87;;;9.20;;
79249;SDS011;68679;51.030;7.584;2023-06-10T01:25:59;12.10;;;9.15;;
79249;SDS011;68679;51.030;7.584;2023-06-10T01:28:33;11.25;;;8.65;;
79249;SDS011;68679;51.030;7.584;2023-06-10T01:31:13;11.50;;;9.13;;
79249;SDS011;68679;51.030;7.584;2023-06-10T01:33:51;10.40;;;8.80;;
79249;SDS011;68679;51.030;7.584;2023-06-10T01:36:18;11.63;;;9.55;;
79249;SDS011;68679;51.030;7.584;2023-06-10T01:38:47;11.27;;;9.00;;
79249;SDS011;68679;51.030;7.584;2023-06-10T01:41:18;14.35;;;8.85;;
79249;SDS011;68679;51.030;7.584;2023-06-10T01:43:46;11.85;;;8.43;;
79249;SDS011;68679;51.030;7.584;2023-06-10T01:46:13;11.13;;;8.43;;
79249;SDS011;68679;51.030;7.584;2023-06-10T01:48:38;14.52;;;9.23;;
79249;SDS011;68679;51.030;7.584;2023-06-10T01:51:04;12.30;;;8.87;;
79249;SDS011;68679;51.030;7.584;2023-06-10T01:53:30;16.40;;;9.18;;
79249;SDS011;68679;51.030;7.584;2023-06-10T01:55:55;14.40;;;9.73;;
79249;SDS011;68679;51.030;7.584;2023-06-10T01:58:21;11.45;;;8.40;;
79249;SDS011;68679;51.030;7.584;2023-06-10T02:00:46;14.77;;;9.13;;
79249;SDS011;68679;51.030;7.584;2023-06-10T02:03:11;15.38;;;8.85;;
79249;SDS011;68679;51.030;7.584;2023-06-10T02:05:37;13.02;;;9.50;;
79249;SDS011;68679;51.030;7.584;2023-06-10T02:08:02;15.80;;;9.80;;
79249;SDS011;68679;51.030;7.584;2023-06-10T02:10:28;13.60;;;9.15;;
79249;SDS011;68679;51.030;7.584;2023-06-10T02:12:53;14.63;;;8.70;;
79249;SDS011;68679;51.030;7.584;2023-06-10T02:15:19;15.07;;;8.80;;
79249;SDS011;68679;51.030;7.584;2023-06-10T02:17:44;12.60;;;8.90;;
79249;SDS011;68679;51.030;7.584;2023-06-10T02:20:14;17.20;;;9.18;;
79249;SDS011;68679;51.030;7.584;2023-06-10T02:22:39;12.25;;;8.80;;
79249;SDS011;68679;51.030;7.584;2023-06-10T02:25:05;11.13;;;7.50;;
79249;SDS011;68679;51.030;7.584;2023-06-10T02:27:30;13.38;;;8.13;;
79249;SDS011;68679;51.030;7.584;2023-06-10T02:29:56;11.32;;;8.85;;
79249;SDS011;68679;51.030;7.584;2023-06-10T02:32:22;11.15;;;8.48;;
79249;SDS011;68679;51.030;7.584;2023-06-10T02:34:47;13.52;;;8.88;;
79249;SDS011;68679;51.030;7.584;2023-06-10T02:37:14;12.13;;;8.07;;
79249;SDS011;68679;51.030;7.584;2023-06-10T02:39:39;11.25;;;8.40;;
79249;SDS011;68679;51.030;7.584;2023-06-10T02:42:05;12.57;;;8.03;;
79249;SDS011;68679;51.030;7.584;2023-06-10T02:44:31;11.23;;;8.07;;
79249;SDS011;68679;51.030;7.584;2023-06-10T02:46:56;14.07;;;8.87;;
79249;SDS011;68679;51.030;7.584;2023-06-10T02:49:22;11.50;;;7.93;;
79249;SDS011;68679;51.030;7.584;2023-06-10T02:51:47;12.00;;;8.10;;
79249;SDS011;68679;51.030;7.584;2023-06-10T02:54:12;11.67;;;8.10;;
79249;SDS011;68679;51.030;7.584;2023-06-10T02:56:37;14.30;;;8.20;;
79249;SDS011;68679;51.030;7.584;2023-06-10T02:59:06;11.43;;;8.15;;
79249;SDS011;68679;51.030;7.584;2023-06-10T03:01:33;15.93;;;8.20;;
79249;SDS011;68679;51.030;7.584;2023-06-10T03:04:00;10.25;;;8.07;;
79249;SDS011;68679;51.030;7.584;2023-06-10T03:06:25;16.57;;;8.20;;
79249;SDS011;68679;51.030;7.584;2023-06-10T03:08:51;10.68;;;7.57;;
79249;SDS011;68679;51.030;7.584;2023-06-10T03:11:16;12.33;;;7.57;;
79249;SDS011;68679;51.030;7.584;2023-06-10T03:13:41;11.17;;;7.50;;
79249;SDS011;68679;51.030;7.584;2023-06-10T03:16:07;12.90;;;7.57;;
79249;SDS011;68679;51.030;7.584;2023-06-10T03:18:32;11.40;;;8.13;;
79249;SDS011;68679;51.030;7.584;2023-06-10T03:20:58;14.67;;;8.30;;
79249;SDS011;68679;51.030;7.584;2023-06-10T03:23:23;12.93;;;7.68;;
79249;SDS011;68679;51.030;7.584;2023-06-10T03:25:48;14.02;;;8.50;;
79249;SDS011;68679;51.030;7.584;2023-06-10T03:28:14;12.15;;;7.40;;
79249;SDS011;68679;51.030;7.584;2023-06-10T03:30:39;11.50;;;6.97;;
79249;SDS011;68679;51.030;7.584;2023-06-10T03:33:05;10.67;;;7.67;;
79249;SDS011;68679;51.030;7.584;2023-06-10T03:35:30;11.05;;;8.10;;
79249;SDS011;68679;51.030;7.584;2023-06-10T03:37:57;14.63;;;8.20;;
79249;SDS011;68679;51.030;7.584;2023-06-10T03:40:22;15.23;;;8.88;;
79249;SDS011;68679;51.030;7.584;2023-06-10T03:42:48;14.20;;;7.80;;
79249;SDS011;68679;51.030;7.584;2023-06-10T03:45:13;11.77;;;7.80;;
79249;SDS011;68679;51.030;7.584;2023-06-10T03:47:38;11.90;;;7.63;;
79249;SDS011;68679;51.030;7.584;2023-06-10T03:50:05;12.85;;;8.23;;
79249;SDS011;68679;51.030;7.584;2023-06-10T03:52:31;10.35;;;7.53;;
79249;SDS011;68679;51.030;7.584;2023-06-10T03:54:57;11.15;;;8.20;;
79249;SDS011;68679;51.030;7.584;2023-06-10T03:57:22;9.13;;;7.75;;
79249;SDS011;68679;51.030;7.584;2023-06-10T03:59:47;10.37;;;7.60;;
79249;SDS011;68679;51.030;7.584;2023-06-10T04:02:13;13.20;;;8.13;;
79249;SDS011;68679;51.030;7.584;2023-06-10T04:04:38;10.47;;;7.40;;
79249;SDS011;68679;51.030;7.584;2023-06-10T04:07:04;11.90;;;7.72;;
79249;SDS011;68679;51.030;7.584;2023-06-10T04:09:31;11.65;;;7.90;;
79249;SDS011;68679;51.030;7.584;2023-06-10T04:11:56;11.30;;;7.55;;
79249;SDS011;68679;51.030;7.584;2023-06-10T04:14:22;12.20;;;6.90;;
79249;SDS011;68679;51.030;7.584;2023-06-10T04:16:47;11.23;;;7.87;;
79249;SDS011;68679;51.030;7.584;2023-06-10T04:19:12;10.23;;;7.43;;
79249;SDS011;68679;51.030;7.584;2023-06-10T04:21:38;11.38;;;7.45;;
79249;SDS011;68679;51.030;7.584;2023-06-10T04:24:03;11.30;;;7.32;;
79249;SDS011;68679;51.030;7.584;2023-06-10T04:26:28;10.65;;;7.03;;
79249;SDS011;68679;51.030;7.584;2023-06-10T04:28:54;11.80;;;7.10;;
79249;SDS011;68679;51.030;7.584;2023-06-10T04:31:19;13.80;;;7.50;;
79249;SDS011;68679;51.030;7.584;2023-06-10T04:33:45;10.82;;;7.20;;
79249;SDS011;68679;51.030;7.584;2023-06-10T04:36:10;10.93;;;6.77;;
79249;SDS011;68679;51.030;7.584;2023-06-10T04:38:36;14.13;;;7.30;;
79249;SDS011;68679;51.030;7.584;2023-06-10T04:41:01;11.70;;;6.80;;
79249;SDS011;68679;51.030;7.584;2023-06-10T04:43:27;12.15;;;7.20;;
79249;SDS011;68679;51.030;7.584;2023-06-10T04:45:53;11.52;;;6.53;;
79249;SDS011;68679;51.030;7.584;2023-06-10T04:48:19;12.10;;;7.72;;
79249;SDS011;68679;51.030;7.584;2023-06-10T04:50:44;10.07;;;7.00;;
79249;SDS011;68679;51.030;7.584;2023-06-10T04:53:09;12.37;;;7.50;;
79249;SDS011;68679;51.030;7.584;2023-06-10T04:55:35;11.05;;;7.30;;
79249;SDS011;68679;51.030;7.584;2023-06-10T04:58:01;12.13;;;7.70;;
79249;SDS011;68679;51.030;7.584;2023-06-10T05:00:26;9.98;;;6.70;;
79249;SDS011;68679;51.030;7.584;2023-06-10T05:02:52;12.15;;;7.13;;
79249;SDS011;68679;51.030;7.584;2023-06-10T05:05:18;10.85;;;6.75;;
79249;SDS011;68679;51.030;7.584;2023-06-10T05:07:43;11.55;;;7.18;;
79249;SDS011;68679;51.030;7.584;2023-06-10T05:10:09;11.13;;;7.50;;
79249;SDS011;68679;51.030;7.584;2023-06-10T05:12:34;9.70;;;6.60;;
79249;SDS011;68679;51.030;7.584;2023-06-10T05:15:00;11.70;;;7.20;;
79249;SDS011;68679;51.030;7.584;2023-06-10T05:17:25;13.33;;;7.47;;
79249;SDS011;68679;51.030;7.584;2023-06-10T05:19:50;10.30;;;7.27;;
79249;SDS011;68679;51.030;7.584;2023-06-10T05:22:16;11.30;;;7.43;;
79249;SDS011;68679;51.030;7.584;2023-06-10T05:24:43;11.10;;;7.38;;
79249;SDS011;68679;51.030;7.584;2023-06-10T05:27:10;10.05;;;6.93;;
79249;SDS011;68679;51.030;7.584;2023-06-10T05:29:37;12.63;;;7.03;;
79249;SDS011;68679;51.030;7.584;2023-06-10T05:32:03;11.48;;;6.53;;
79249;SDS011;68679;51.030;7.584;2023-06-10T05:34:29;9.82;;;7.03;;
79249;SDS011;68679;51.030;7.584;2023-06-10T05:36:55;11.70;;;7.13;;
79249;SDS011;68679;51.030;7.584;2023-06-10T05:39:20;10.53;;;7.70;;
79249;SDS011;68679;51.030;7.584;2023-06-10T05:41:45;11.03;;;6.87;;
79249;SDS011;68679;51.030;7.584;2023-06-10T05:44:11;10.60;;;7.07;;
79249;SDS011;68679;51.030;7.584;2023-06-10T05:46:36;9.40;;;6.70;;
79249;SDS011;68679;51.030;7.584;2023-06-10T05:49:01;10.07;;;6.50;;
79249;SDS011;68679;51.030;7.584;2023-06-10T05:51:27;9.63;;;6.13;;
79249;SDS011;68679;51.030;7.584;2023-06-10T05:53:53;10.25;;;6.10;;
79249;SDS011;68679;51.030;7.584;2023-06-10T05:56:19;9.85;;;6.40;;
79249;SDS011;68679;51.030;7.584;2023-06-10T05:58:46;12.85;;;6.32;;
79249;SDS011;68679;51.030;7.584;2023-06-10T06:01:11;9.00;;;6.30;;
79249;SDS011;68679;51.030;7.584;2023-06-10T06:03:37;8.50;;;6.17;;
79249;SDS011;68679;51.030;7.584;2023-06-10T06:06:02;9.83;;;6.53;;
79249;SDS011;68679;51.030;7.584;2023-06-10T06:08:28;10.43;;;6.10;;
79249;SDS011;68679;51.030;7.584;2023-06-10T06:10:54;11.40;;;7.65;;
79249;SDS011;68679;51.030;7.584;2023-06-10T06:13:19;9.57;;;6.57;;
79249;SDS011;68679;51.030;7.584;2023-06-10T06:15:44;11.13;;;6.23;;
79249;SDS011;68679;51.030;7.584;2023-06-10T06:18:10;10.90;;;6.15;;
79249;SDS011;68679;51.030;7.584;2023-06-10T06:20:35;11.67;;;6.00;;
79249;SDS011;68679;51.030;7.584;2023-06-10T06:23:00;8.97;;;5.97;;
79249;SDS011;68679;51.030;7.584;2023-06-10T06:25:26;10.32;;;5.85;;
79249;SDS011;68679;51.030;7.584;2023-06-10T06:27:51;8.37;;;6.13;;
79249;SDS011;68679;51.030;7.584;2023-06-10T06:30:17;8.27;;;5.80;;
79249;SDS011;68679;51.030;7.584;2023-06-10T06:32:42;8.57;;;5.43;;
79249;SDS011;68679;51.030;7.584;2023-06-10T06:35:07;14.30;;;6.30;;
79249;SDS011;68679;51.030;7.584;2023-06-10T06:37:33;9.30;;;5.80;;
79249;SDS011;68679;51.030;7.584;2023-06-10T06:39:59;12.05;;;6.63;;
79249;SDS011;68679;51.030;7.584;2023-06-10T06:42:24;10.32;;;6.18;;
79249;SDS011;68679;51.030;7.584;2023-06-10T06:44:49;8.68;;;5.90;;
79249;SDS011;68679;51.030;7.584;2023-06-10T06:47:15;9.43;;;6.30;;
79249;SDS011;68679;51.030;7.584;2023-06-10T06:49:42;8.27;;;6.45;;
79249;SDS011;68679;51.030;7.584;2023-06-10T06:52:08;10.15;;;6.35;;
79249;SDS011;68679;51.030;7.584;2023-06-10T06:54:33;8.57;;;6.17;;
79249;SDS011;68679;51.030;7.584;2023-06-10T06:56:58;8.23;;;5.72;;
79249;SDS011;68679;51.030;7.584;2023-06-10T06:59:24;10.17;;;6.00;;
79249;SDS011;68679;51.030;7.584;2023-06-10T07:01:50;12.02;;;6.55;;
79249;SDS011;68679;51.030;7.584;2023-06-10T07:04:16;9.95;;;6.60;;
79249;SDS011;68679;51.030;7.584;2023-06-10T07:06:41;10.60;;;6.63;;
79249;SDS011;68679;51.030;7.584;2023-06-10T07:09:07;8.80;;;6.25;;
79249;SDS011;68679;51.030;7.584;2023-06-10T07:11:36;10.50;;;6.55;;
79249;SDS011;68679;51.030;7.584;2023-06-10T07:14:01;8.87;;;6.67;;
79249;SDS011;68679;51.030;7.584;2023-06-10T07:16:26;10.90;;;6.57;;
79249;SDS011;68679;51.030;7.584;2023-06-10T07:18:54;12.70;;;6.87;;
79249;SDS011;68679;51.030;7.584;2023-06-10T07:21:20;10.27;;;6.63;;
79249;SDS011;68679;51.030;7.584;2023-06-10T07:23:45;11.00;;;6.57;;
79249;SDS011;68679;51.030;7.584;2023-06-10T07:26:11;10.75;;;7.50;;
79249;SDS011;68679;51.030;7.584;2023-06-10T07:28:38;42.42;;;21.10;;
79249;SDS011;68679;51.030;7.584;2023-06-10T07:31:04;13.55;;;6.65;;
79249;SDS011;68679;51.030;7.584;2023-06-10T07:33:29;10.57;;;6.63;;
79249;SDS011;68679;51.030;7.584;2023-06-10T07:35:55;10.37;;;7.10;;
79249;SDS011;68679;51.030;7.584;2023-06-10T07:38:20;10.07;;;6.20;;
79249;SDS011;68679;51.030;7.584;2023-06-10T07:40:45;9.60;;;6.60;;
79249;SDS011;68679;51.030;7.584;2023-06-10T07:43:10;16.80;;;11.57;;
79249;SDS011;68679;51.030;7.584;2023-06-10T07:45:36;9.40;;;6.47;;
79249;SDS011;68679;51.030;7.584;2023-06-10T07:48:01;9.47;;;7.07;;
79249;SDS011;68679;51.030;7.584;2023-06-10T07:50:26;9.43;;;6.60;;
79249;SDS011;68679;51.030;7.584;2023-06-10T07:52:52;10.67;;;7.17;;
79249;SDS011;68679;51.030;7.584;2023-06-10T07:55:17;11.67;;;7.23;;
79249;SDS011;68679;51.030;7.584;2023-06-10T07:57:42;12.03;;;6.90;;
79249;SDS011;68679;51.030;7.584;2023-06-10T08:00:09;8.30;;;6.47;;
79249;SDS011;68679;51.030;7.584;2023-06-10T08:02:34;9.02;;;6.65;;
79249;SDS011;68679;51.030;7.584;2023-06-10T08:05:00;8.93;;;5.90;;
79249;SDS011;68679;51.030;7.584;2023-06-10T08:07:25;11.67;;;6.73;;
79249;SDS011;68679;51.030;7.584;2023-06-10T08:09:50;10.07;;;7.43;;
79249;SDS011;68679;51.030;7.584;2023-06-10T08:12:15;12.47;;;7.23;;
79249;SDS011;68679;51.030;7.584;2023-06-10T08:14:41;9.57;;;6.63;;
79249;SDS011;68679;51.030;7.584;2023-06-10T08:17:06;8.75;;;6.72;;
79249;SDS011;68679;51.030;7.584;2023-06-10T08:19:32;10.77;;;7.15;;
79249;SDS011;68679;51.030;7.584;2023-06-10T08:21:57;12.13;;;6.77;;
79249;SDS011;68679;51.030;7.584;2023-06-10T08:24:22;9.45;;;6.90;;
79249;SDS011;68679;51.030;7.584;2023-06-10T08:26:47;7.80;;;7.00;;
79249;SDS011;68679;51.030;7.584;2023-06-10T08:29:13;10.40;;;7.50;;
79249;SDS011;68679;51.030;7.584;2023-06-10T08:31:44;8.80;;;6.68;;
79249;SDS011;68679;51.030;7.584;2023-06-10T08:34:09;10.27;;;7.32;;
79249;SDS011;68679;51.030;7.584;2023-06-10T08:36:35;9.52;;;6.75;;
79249;SDS011;68679;51.030;7.584;2023-06-10T08:39:00;8.95;;;6.60;;
79249;SDS011;68679;51.030;7.584;2023-06-10T08:41:27;9.65;;;7.03;;
79249;SDS011;68679;51.030;7.584;2023-06-10T08:44:38;9.23;;;7.28;;
79249;SDS011;68679;51.030;7.584;2023-06-10T08:46:45;14.02;;;7.38;;
79249;SDS011;68679;51.030;7.584;2023-06-10T08:49:11;11.05;;;7.15;;
79249;SDS011;68679;51.030;7.584;2023-06-10T08:51:43;10.30;;;7.40;;
79249;SDS011;68679;51.030;7.584;2023-06-10T08:54:15;10.30;;;7.68;;
79249;SDS011;68679;51.030;7.584;2023-06-10T08:56:45;14.23;;;7.78;;
79249;SDS011;68679;51.030;7.584;2023-06-10T08:59:16;10.68;;;7.00;;
79249;SDS011;68679;51.030;7.584;2023-06-10T09:01:42;11.88;;;7.28;;
79249;SDS011;68679;51.030;7.584;2023-06-10T09:04:08;9.77;;;7.00;;
79249;SDS011;68679;51.030;7.584;2023-06-10T09:06:34;11.02;;;7.25;;
79249;SDS011;68679;51.030;7.584;2023-06-10T09:09:01;9.43;;;7.30;;
79249;SDS011;68679;51.030;7.584;2023-06-10T09:11:26;8.32;;;7.40;;
79249;SDS011;68679;51.030;7.584;2023-06-10T09:13:52;8.77;;;7.10;;
79249;SDS011;68679;51.030;7.584;2023-06-10T09:16:17;10.33;;;6.93;;
79249;SDS011;68679;51.030;7.584;2023-06-10T09:18:43;9.25;;;7.30;;
79249;SDS011;68679;51.030;7.584;2023-06-10T09:21:08;10.75;;;7.57;;
79249;SDS011;68679;51.030;7.584;2023-06-10T09:23:33;9.95;;;7.43;;
79249;SDS011;68679;51.030;7.584;2023-06-10T09:26:00;8.95;;;7.20;;
79249;SDS011;68679;51.030;7.584;2023-06-10T09:28:25;10.77;;;7.00;;
79249;SDS011;68679;51.030;7.584;2023-06-10T09:31:01;11.60;;;7.10;;
79249;SDS011;68679;51.030;7.584;2023-06-10T09:33:28;9.25;;;7.00;;
79249;SDS011;68679;51.030;7.584;2023-06-10T09:35:54;9.98;;;7.40;;
79249;SDS011;68679;51.030;7.584;2023-06-10T09:38:21;10.13;;;7.20;;
79249;SDS011;68679;51.030;7.584;2023-06-10T09:40:48;10.27;;;7.57;;
79249;SDS011;68679;51.030;7.584;2023-06-10T09:43:18;11.20;;;7.15;;
79249;SDS011;68679;51.030;7.584;2023-06-10T09:45:47;11.07;;;7.25;;
79249;SDS011;68679;51.030;7.584;2023-06-10T09:48:13;10.73;;;7.38;;
79249;SDS011;68679;51.030;7.584;2023-06-10T09:50:42;10.57;;;7.63;;
79249;SDS011;68679;51.030;7.584;2023-06-10T09:53:09;9.27;;;7.57;;
79249;SDS011;68679;51.030;7.584;2023-06-10T09:55:36;16.77;;;7.13;;
79249;SDS011;68679;51.030;7.584;2023-06-10T09:58:03;9.32;;;7.18;;
79249;SDS011;68679;51.030;7.584;2023-06-10T10:00:28;8.27;;;6.68;;
79249;SDS011;68679;51.030;7.584;2023-06-10T10:02:57;11.80;;;7.22;;
79249;SDS011;68679;51.030;7.584;2023-06-10T10:05:22;13.13;;;6.87;;
79249;SDS011;68679;51.030;7.584;2023-06-10T10:07:48;8.00;;;6.18;;
79249;SDS011;68679;51.030;7.584;2023-06-10T10:10:14;11.63;;;6.60;;
79249;SDS011;68679;51.030;7.584;2023-06-10T10:12:40;9.73;;;7.03;;
79249;SDS011;68679;51.030;7.584;2023-06-10T10:15:07;10.18;;;7.80;;
79249;SDS011;68679;51.030;7.584;2023-06-10T10:17:34;8.65;;;7.13;;
79249;SDS011;68679;51.030;7.584;2023-06-10T10:20:03;9.60;;;7.07;;
79249;SDS011;68679;51.030;7.584;2023-06-10T10:22:33;10.50;;;6.45;;
79249;SDS011;68679;51.030;7.584;2023-06-10T10:25:05;9.18;;;6.82;;
79249;SDS011;68679;51.030;7.584;2023-06-10T10:27:36;9.80;;;6.07;;
79249;SDS011;68679;51.030;7.584;2023-06-10T10:30:08;7.90;;;6.13;;
79249;SDS011;68679;51.030;7.584;2023-06-10T10:33:19;10.52;;;7.00;;
79249;SDS011;68679;51.030;7.584;2023-06-10T10:35:26;12.63;;;6.90;;
79249;SDS011;68679;51.030;7.584;2023-06-10T10:37:52;8.52;;;6.28;;
79249;SDS011;68679;51.030;7.584;2023-06-10T10:40:18;10.57;;;6.50;;
79249;SDS011;68679;51.030;7.584;2023-06-10T10:42:45;9.88;;;6.03;;
79249;SDS011;68679;51.030;7.584;2023-06-10T10:45:14;12.45;;;6.03;;
79249;SDS011;68679;51.030;7.584;2023-06-10T10:47:39;8.70;;;5.90;;
79249;SDS011;68679;51.030;7.584;2023-06-10T10:50:18;10.00;;;6.32;;
79249;SDS011;68679;51.030;7.584;2023-06-10T10:53:05;10.85;;;6.00;;
79249;SDS011;68679;51.030;7.584;2023-06-10T10:55:30;8.13;;;6.50;;
79249;SDS011;68679;51.030;7.584;2023-06-10T10:57:57;7.38;;;5.57;;
79249;SDS011;68679;51.030;7.584;2023-06-10T11:00:24;10.38;;;5.95;;
79249;SDS011;68679;51.030;7.584;2023-06-10T11:02:56;8.90;;;5.85;;
79249;SDS011;68679;51.030;7.584;2023-06-10T11:05:31;8.68;;;6.20;;
79249;SDS011;68679;51.030;7.584;2023-06-10T11:08:03;9.40;;;6.45;;
79249;SDS011;68679;51.030;7.584;2023-06-10T11:10:33;8.80;;;6.78;;
79249;SDS011;68679;51.030;7.584;2023-06-10T11:13:12;8.57;;;6.35;;
79249;SDS011;68679;51.030;7.584;2023-06-10T11:15:40;8.27;;;6.30;;
79249;SDS011;68679;51.030;7.584;2023-06-10T11:21:01;10.77;;;6.28;;
79249;SDS011;68679;51.030;7.584;2023-06-10T11:31:23;8.27;;;5.57;;
79249;SDS011;68679;51.030;7.584;2023-06-10T11:33:56;8.13;;;6.18;;
79249;SDS011;68679;51.030;7.584;2023-06-10T11:36:23;8.13;;;5.25;;
79249;SDS011;68679;51.030;7.584;2023-06-10T11:38:56;7.45;;;5.45;;
79249;SDS011;68679;51.030;7.584;2023-06-10T11:41:26;8.10;;;5.68;;
79249;SDS011;68679;51.030;7.584;2023-06-10T11:43:52;9.40;;;6.00;;
79249;SDS011;68679;51.030;7.584;2023-06-10T11:46:20;6.95;;;5.57;;
79249;SDS011;68679;51.030;7.584;2023-06-10T11:48:56;8.02;;;5.53;;
79249;SDS011;68679;51.030;7.584;2023-06-10T11:51:25;8.05;;;5.63;;
79249;SDS011;68679;51.030;7.584;2023-06-10T11:53:50;8.02;;;6.07;;
79249;SDS011;68679;51.030;7.584;2023-06-10T11:56:21;7.50;;;5.65;;
79249;SDS011;68679;51.030;7.584;2023-06-10T11:58:54;8.02;;;6.13;;
79249;SDS011;68679;51.030;7.584;2023-06-10T12:01:24;8.32;;;5.70;;
79249;SDS011;68679;51.030;7.584;2023-06-10T12:04:00;8.27;;;6.35;;
79249;SDS011;68679;51.030;7.584;2023-06-10T12:06:37;8.43;;;5.82;;
79249;SDS011;68679;51.030;7.584;2023-06-10T12:09:04;7.78;;;6.10;;
79249;SDS011;68679;51.030;7.584;2023-06-10T12:11:30;8.05;;;6.00;;
79249;SDS011;68679;51.030;7.584;2023-06-10T12:13:55;7.65;;;5.60;;
79249;SDS011;68679;51.030;7.584;2023-06-10T12:16:21;8.10;;;5.80;;
79249;SDS011;68679;51.030;7.584;2023-06-10T12:18:46;8.68;;;5.35;;
79249;SDS011;68679;51.030;7.584;2023-06-10T12:21:16;12.27;;;5.90;;
79249;SDS011;68679;51.030;7.584;2023-06-10T12:23:59;8.30;;;5.40;;
79249;SDS011;68679;51.030;7.584;2023-06-10T12:26:33;9.25;;;5.90;;
79249;SDS011;68679;51.030;7.584;2023-06-10T12:29:15;9.25;;;5.18;;
79249;SDS011;68679;51.030;7.584;2023-06-10T12:34:17;7.80;;;5.85;;
79249;SDS011;68679;51.030;7.584;2023-06-10T12:36:47;7.63;;;4.97;;
79249;SDS011;68679;51.030;7.584;2023-06-10T12:39:13;7.07;;;5.78;;
79249;SDS011;68679;51.030;7.584;2023-06-10T12:41:39;10.33;;;6.00;;
79249;SDS011;68679;51.030;7.584;2023-06-10T12:44:05;7.47;;;5.90;;
79249;SDS011;68679;51.030;7.584;2023-06-10T12:46:36;7.70;;;5.63;;
79249;SDS011;68679;51.030;7.584;2023-06-10T12:49:02;7.50;;;5.75;;
79249;SDS011;68679;51.030;7.584;2023-06-10T12:51:27;7.53;;;5.97;;
79249;SDS011;68679;51.030;7.584;2023-06-10T12:53:52;10.63;;;6.27;;
79249;SDS011;68679;51.030;7.584;2023-06-10T12:56:18;8.17;;;5.90;;
79249;SDS011;68679;51.030;7.584;2023-06-10T12:58:43;6.73;;;5.50;;
79249;SDS011;68679;51.030;7.584;2023-06-10T13:01:08;10.80;;;6.13;;
79249;SDS011;68679;51.030;7.584;2023-06-10T13:03:33;6.67;;;5.20;;
79249;SDS011;68679;51.030;7.584;2023-06-10T13:05:59;9.27;;;5.80;;
79249;SDS011;68679;51.030;7.584;2023-06-10T13:08:24;7.82;;;5.40;;
79249;SDS011;68679;51.030;7.584;2023-06-10T13:10:49;9.23;;;5.55;;
79249;SDS011;68679;51.030;7.584;2023-06-10T13:13:15;8.20;;;5.60;;
79249;SDS011;68679;51.030;7.584;2023-06-10T13:15:40;9.00;;;5.70;;
79249;SDS011;68679;51.030;7.584;2023-06-10T13:18:06;6.38;;;5.03;;
79249;SDS011;68679;51.030;7.584;2023-06-10T13:20:31;8.43;;;5.60;;
79249;SDS011;68679;51.030;7.584;2023-06-10T13:22:57;6.90;;;5.67;;
79249;SDS011;68679;51.030;7.584;2023-06-10T13:25:22;8.50;;;5.68;;
79249;SDS011;68679;51.030;7.584;2023-06-10T13:27:48;9.20;;;5.70;;
79249;SDS011;68679;51.030;7.584;2023-06-10T13:30:13;7.43;;;6.10;;
79249;SDS011;68679;51.030;7.584;2023-06-10T13:32:39;9.03;;;6.03;;
79249;SDS011;68679;51.030;7.584;2023-06-10T13:35:04;7.17;;;5.33;;
79249;SDS011;68679;51.030;7.584;2023-06-10T13:37:30;10.80;;;5.45;;
79249;SDS011;68679;51.030;7.584;2023-06-10T13:39:55;12.15;;;5.88;;
79249;SDS011;68679;51.030;7.584;2023-06-10T13:42:21;9.15;;;6.28;;
79249;SDS011;68679;51.030;7.584;2023-06-10T13:44:46;7.03;;;5.45;;
79249;SDS011;68679;51.030;7.584;2023-06-10T13:47:13;10.40;;;5.72;;
79249;SDS011;68679;51.030;7.584;2023-06-10T13:49:39;8.75;;;5.63;;
79249;SDS011;68679;51.030;7.584;2023-06-10T13:52:05;9.07;;;5.55;;
79249;SDS011;68679;51.030;7.584;2023-06-10T13:54:30;7.97;;;5.85;;
79249;SDS011;68679;51.030;7.584;2023-06-10T13:56:56;10.83;;;5.80;;
79249;SDS011;68679;51.030;7.584;2023-06-10T13:59:21;9.23;;;5.90;;
79249;SDS011;68679;51.030;7.584;2023-06-10T14:01:46;9.13;;;5.90;;
79249;SDS011;68679;51.030;7.584;2023-06-10T14:04:12;11.07;;;5.97;;
79249;SDS011;68679;51.030;7.584;2023-06-10T14:06:37;9.18;;;5.95;;
79249;SDS011;68679;51.030;7.584;2023-06-10T14:09:03;10.85;;;5.80;;
79249;SDS011;68679;51.030;7.584;2023-06-10T14:11:28;12.15;;;5.38;;
79249;SDS011;68679;51.030;7.584;2023-06-10T14:13:54;11.20;;;6.25;;
79249;SDS011;68679;51.030;7.584;2023-06-10T14:16:22;9.13;;;5.22;;
79249;SDS011;68679;51.030;7.584;2023-06-10T14:18:48;9.05;;;5.70;;
79249;SDS011;68679;51.030;7.584;2023-06-10T14:21:14;10.27;;;6.03;;
79249;SDS011;68679;51.030;7.584;2023-06-10T14:23:40;9.70;;;5.30;;
79249;SDS011;68679;51.030;7.584;2023-06-10T14:26:06;6.32;;;4.97;;
79249;SDS011;68679;51.030;7.584;2023-06-10T14:28:32;7.90;;;5.15;;
79249;SDS011;68679;51.030;7.584;2023-06-10T14:30:57;8.60;;;5.03;;
79249;SDS011;68679;51.030;7.584;2023-06-10T14:33:23;6.27;;;4.77;;
79249;SDS011;68679;51.030;7.584;2023-06-10T14:35:48;7.93;;;4.72;;
79249;SDS011;68679;51.030;7.584;2023-06-10T14:38:13;6.70;;;4.70;;
79249;SDS011;68679;51.030;7.584;2023-06-10T14:40:38;7.70;;;4.90;;
79249;SDS011;68679;51.030;7.584;2023-06-10T14:43:04;9.05;;;4.68;;
79249;SDS011;68679;51.030;7.584;2023-06-10T14:45:34;9.48;;;5.50;;
79249;SDS011;68679;51.030;7.584;2023-06-10T14:48:00;8.50;;;5.47;;
79249;SDS011;68679;51.030;7.584;2023-06-10T14:50:25;10.33;;;5.67;;
79249;SDS011;68679;51.030;7.584;2023-06-10T14:52:51;7.63;;;5.67;;